sensor_id;sensor_type;location;lat;lon;timestamp;P1;durP1;ratioP1;P2;durP2;ratioP2
59109;SDS011;44895;47.438;18.978;2022-12-29T00:02:11;17.60;;;8.48;;
59109;SDS011;44895;47.438;18.978;2022-12-29T00:05:15;14.07;;;7.90;;
59109;SDS011;44895;47.438;18.978;2022-12-29T00:08:19;17.55;;;8.15;;
59109;SDS011;44895;47.438;18.978;2022-12-29T00:11:24;14.52;;;7.18;;
59109;SDS011;44895;47.438;18.978;2022-12-29T00:14:29;15.80;;;9.23;;
59109;SDS011;44895;47.438;18.978;2022-12-29T00:17:51;14.70;;;7.63;;
59109;SDS011;44895;47.438;18.978;2022-12-29T00:20:55;17.15;;;8.85;;
59109;SDS011;44895;47.438;18.978;2022-12-29T00:24:18;15.00;;;8.45;;
59109;SDS011;44895;47.438;18.978;2022-12-29T00:27:29;18.20;;;9.95;;
59109;SDS011;44895;47.438;18.978;2022-12-29T00:30:53;18.55;;;10.20;;
59109;SDS011;44895;47.438;18.978;2022-12-29T00:34:15;13.70;;;8.27;;
59109;SDS011;44895;47.438;18.978;2022-12-29T00:37:43;14.15;;;7.93;;
59109;SDS011;44895;47.438;18.978;2022-12-29T00:41:08;15.88;;;9.32;;
59109;SDS011;44895;47.438;18.978;2022-12-29T00:44:30;16.50;;;9.18;;
59109;SDS011;44895;47.438;18.978;2022-12-29T00:47:34;14.93;;;9.23;;
59109;SDS011;44895;47.438;18.978;2022-12-29T00:50:38;18.00;;;12.10;;
59109;SDS011;44895;47.438;18.978;2022-12-29T00:53:42;15.38;;;9.48;;
59109;SDS011;44895;47.438;18.978;2022-12-29T00:56:49;22.83;;;11.70;;
59109;SDS011;44895;47.438;18.978;2022-12-29T01:02:57;19.58;;;11.35;;
59109;SDS011;44895;47.438;18.978;2022-12-29T01:06:05;15.50;;;11.10;;
59109;SDS011;44895;47.438;18.978;2022-12-29T01:09:11;24.70;;;10.30;;
59109;SDS011;44895;47.438;18.978;2022-12-29T01:12:33;16.00;;;9.63;;
59109;SDS011;44895;47.438;18.978;2022-12-29T01:15:51;19.20;;;9.73;;
59109;SDS011;44895;47.438;18.978;2022-12-29T01:18:56;17.63;;;10.82;;
59109;SDS011;44895;47.438;18.978;2022-12-29T01:22:00;19.00;;;10.98;;
59109;SDS011;44895;47.438;18.978;2022-12-29T01:25:05;22.52;;;10.80;;
59109;SDS011;44895;47.438;18.978;2022-12-29T01:28:09;19.10;;;10.40;;
59109;SDS011;44895;47.438;18.978;2022-12-29T01:31:14;19.33;;;11.50;;
59109;SDS011;44895;47.438;18.978;2022-12-29T01:34:18;24.73;;;12.05;;
59109;SDS011;44895;47.438;18.978;2022-12-29T01:37:22;16.98;;;12.68;;
59109;SDS011;44895;47.438;18.978;2022-12-29T01:40:26;21.10;;;12.90;;
59109;SDS011;44895;47.438;18.978;2022-12-29T01:43:49;21.23;;;10.32;;
59109;SDS011;44895;47.438;18.978;2022-12-29T01:46:59;18.80;;;11.20;;
59109;SDS011;44895;47.438;18.978;2022-12-29T01:50:50;22.52;;;11.45;;
59109;SDS011;44895;47.438;18.978;2022-12-29T01:53:34;18.73;;;12.35;;
59109;SDS011;44895;47.438;18.978;2022-12-29T01:56:39;18.77;;;10.95;;
59109;SDS011;44895;47.438;18.978;2022-12-29T01:59:46;15.88;;;9.48;;
59109;SDS011;44895;47.438;18.978;2022-12-29T02:02:55;20.23;;;10.35;;
59109;SDS011;44895;47.438;18.978;2022-12-29T02:06:04;17.95;;;10.50;;
59109;SDS011;44895;47.438;18.978;2022-12-29T02:09:16;17.63;;;12.53;;
59109;SDS011;44895;47.438;18.978;2022-12-29T02:12:20;16.75;;;8.98;;
59109;SDS011;44895;47.438;18.978;2022-12-29T02:15:31;15.75;;;9.95;;
59109;SDS011;44895;47.438;18.978;2022-12-29T02:28:50;17.55;;;10.10;;
59109;SDS011;44895;47.438;18.978;2022-12-29T02:42:26;15.55;;;9.38;;
59109;SDS011;44895;47.438;18.978;2022-12-29T02:49:04;16.27;;;10.93;;
59109;SDS011;44895;47.438;18.978;2022-12-29T02:52:36;20.10;;;11.05;;
59109;SDS011;44895;47.438;18.978;2022-12-29T02:55:49;17.48;;;9.48;;
59109;SDS011;44895;47.438;18.978;2022-12-29T02:58:54;23.55;;;13.18;;
59109;SDS011;44895;47.438;18.978;2022-12-29T03:02:04;17.38;;;11.18;;
59109;SDS011;44895;47.438;18.978;2022-12-29T03:08:51;19.10;;;9.85;;
59109;SDS011;44895;47.438;18.978;2022-12-29T03:12:07;16.08;;;8.73;;
59109;SDS011;44895;47.438;18.978;2022-12-29T03:15:56;17.30;;;10.75;;
59109;SDS011;44895;47.438;18.978;2022-12-29T03:19:10;16.88;;;9.93;;
59109;SDS011;44895;47.438;18.978;2022-12-29T03:22:22;23.95;;;12.38;;
59109;SDS011;44895;47.438;18.978;2022-12-29T03:25:46;18.50;;;11.15;;
59109;SDS011;44895;47.438;18.978;2022-12-29T03:28:55;18.58;;;11.95;;
59109;SDS011;44895;47.438;18.978;2022-12-29T03:32:03;21.25;;;13.20;;
59109;SDS011;44895;47.438;18.978;2022-12-29T03:35:08;19.40;;;11.07;;
59109;SDS011;44895;47.438;18.978;2022-12-29T03:38:19;17.42;;;14.05;;
59109;SDS011;44895;47.438;18.978;2022-12-29T03:41:31;23.08;;;12.13;;
59109;SDS011;44895;47.438;18.978;2022-12-29T03:44:40;20.38;;;14.18;;
59109;SDS011;44895;47.438;18.978;2022-12-29T03:47:47;22.45;;;13.93;;
59109;SDS011;44895;47.438;18.978;2022-12-29T03:50:50;22.17;;;12.48;;
59109;SDS011;44895;47.438;18.978;2022-12-29T03:53:54;19.98;;;12.38;;
59109;SDS011;44895;47.438;18.978;2022-12-29T03:56:59;21.80;;;11.52;;
59109;SDS011;44895;47.438;18.978;2022-12-29T04:00:25;22.67;;;12.50;;
59109;SDS011;44895;47.438;18.978;2022-12-29T04:03:29;19.42;;;12.60;;
59109;SDS011;44895;47.438;18.978;2022-12-29T04:06:33;18.05;;;12.05;;
59109;SDS011;44895;47.438;18.978;2022-12-29T04:09:41;19.20;;;12.32;;
59109;SDS011;44895;47.438;18.978;2022-12-29T04:12:47;23.40;;;12.57;;
59109;SDS011;44895;47.438;18.978;2022-12-29T04:15:51;19.40;;;13.60;;
59109;SDS011;44895;47.438;18.978;2022-12-29T04:18:55;17.33;;;10.02;;
59109;SDS011;44895;47.438;18.978;2022-12-29T04:21:59;17.88;;;11.80;;
59109;SDS011;44895;47.438;18.978;2022-12-29T04:25:03;24.90;;;13.50;;
59109;SDS011;44895;47.438;18.978;2022-12-29T04:28:07;22.73;;;12.77;;
59109;SDS011;44895;47.438;18.978;2022-12-29T04:31:17;22.10;;;12.10;;
59109;SDS011;44895;47.438;18.978;2022-12-29T04:34:22;21.75;;;11.80;;
59109;SDS011;44895;47.438;18.978;2022-12-29T04:37:26;22.42;;;12.00;;
59109;SDS011;44895;47.438;18.978;2022-12-29T04:40:30;20.88;;;11.95;;
59109;SDS011;44895;47.438;18.978;2022-12-29T04:43:34;18.65;;;11.48;;
59109;SDS011;44895;47.438;18.978;2022-12-29T04:46:56;21.02;;;10.27;;
59109;SDS011;44895;47.438;18.978;2022-12-29T04:50:17;19.77;;;11.45;;
59109;SDS011;44895;47.438;18.978;2022-12-29T04:53:28;23.65;;;13.23;;
59109;SDS011;44895;47.438;18.978;2022-12-29T04:56:35;19.13;;;11.57;;
59109;SDS011;44895;47.438;18.978;2022-12-29T04:59:39;25.33;;;14.35;;
59109;SDS011;44895;47.438;18.978;2022-12-29T05:02:43;22.27;;;12.82;;
59109;SDS011;44895;47.438;18.978;2022-12-29T05:05:47;18.27;;;12.88;;
59109;SDS011;44895;47.438;18.978;2022-12-29T05:08:51;21.88;;;12.85;;
59109;SDS011;44895;47.438;18.978;2022-12-29T05:11:55;17.17;;;12.23;;
59109;SDS011;44895;47.438;18.978;2022-12-29T05:14:58;20.42;;;12.20;;
59109;SDS011;44895;47.438;18.978;2022-12-29T05:18:03;20.63;;;13.35;;
59109;SDS011;44895;47.438;18.978;2022-12-29T05:21:06;17.27;;;12.70;;
59109;SDS011;44895;47.438;18.978;2022-12-29T05:24:10;20.70;;;12.50;;
59109;SDS011;44895;47.438;18.978;2022-12-29T05:27:14;18.30;;;11.18;;
59109;SDS011;44895;47.438;18.978;2022-12-29T05:30:25;18.48;;;12.77;;
59109;SDS011;44895;47.438;18.978;2022-12-29T05:33:29;21.17;;;11.43;;
59109;SDS011;44895;47.438;18.978;2022-12-29T05:36:34;25.42;;;14.60;;
59109;SDS011;44895;47.438;18.978;2022-12-29T05:39:39;23.58;;;13.30;;
59109;SDS011;44895;47.438;18.978;2022-12-29T05:42:45;22.23;;;12.45;;
59109;SDS011;44895;47.438;18.978;2022-12-29T05:46:14;24.00;;;15.02;;
59109;SDS011;44895;47.438;18.978;2022-12-29T05:49:35;28.27;;;16.45;;
59109;SDS011;44895;47.438;18.978;2022-12-29T05:52:45;19.58;;;10.65;;
59109;SDS011;44895;47.438;18.978;2022-12-29T05:55:50;19.17;;;12.07;;
59109;SDS011;44895;47.438;18.978;2022-12-29T05:58:54;20.20;;;12.32;;
59109;SDS011;44895;47.438;18.978;2022-12-29T06:01:59;22.00;;;14.60;;
59109;SDS011;44895;47.438;18.978;2022-12-29T06:05:03;23.80;;;14.05;;
59109;SDS011;44895;47.438;18.978;2022-12-29T06:08:07;22.10;;;14.18;;
59109;SDS011;44895;47.438;18.978;2022-12-29T06:11:11;23.80;;;14.30;;
59109;SDS011;44895;47.438;18.978;2022-12-29T06:14:18;25.52;;;14.00;;
59109;SDS011;44895;47.438;18.978;2022-12-29T06:17:22;23.15;;;15.27;;
59109;SDS011;44895;47.438;18.978;2022-12-29T06:20:27;21.00;;;15.00;;
59109;SDS011;44895;47.438;18.978;2022-12-29T06:23:31;25.25;;;14.38;;
59109;SDS011;44895;47.438;18.978;2022-12-29T06:26:36;22.90;;;15.20;;
59109;SDS011;44895;47.438;18.978;2022-12-29T06:29:40;25.02;;;13.80;;
59109;SDS011;44895;47.438;18.978;2022-12-29T06:32:45;29.08;;;17.02;;
59109;SDS011;44895;47.438;18.978;2022-12-29T06:35:49;23.17;;;14.63;;
59109;SDS011;44895;47.438;18.978;2022-12-29T06:38:53;26.92;;;14.77;;
59109;SDS011;44895;47.438;18.978;2022-12-29T06:41:59;24.30;;;16.50;;
59109;SDS011;44895;47.438;18.978;2022-12-29T06:45:32;23.13;;;14.93;;
59109;SDS011;44895;47.438;18.978;2022-12-29T06:48:35;28.52;;;15.73;;
59109;SDS011;44895;47.438;18.978;2022-12-29T06:51:39;23.85;;;15.95;;
59109;SDS011;44895;47.438;18.978;2022-12-29T06:54:43;27.08;;;16.15;;
59109;SDS011;44895;47.438;18.978;2022-12-29T06:57:47;22.25;;;13.80;;
59109;SDS011;44895;47.438;18.978;2022-12-29T07:00:51;25.80;;;16.00;;
59109;SDS011;44895;47.438;18.978;2022-12-29T07:03:54;26.77;;;16.75;;
59109;SDS011;44895;47.438;18.978;2022-12-29T07:06:58;19.90;;;15.60;;
59109;SDS011;44895;47.438;18.978;2022-12-29T07:10:02;25.58;;;14.73;;
59109;SDS011;44895;47.438;18.978;2022-12-29T07:13:06;21.60;;;14.23;;
59109;SDS011;44895;47.438;18.978;2022-12-29T07:16:11;22.70;;;15.15;;
59109;SDS011;44895;47.438;18.978;2022-12-29T07:19:14;28.75;;;16.42;;
59109;SDS011;44895;47.438;18.978;2022-12-29T07:22:18;25.48;;;16.30;;
59109;SDS011;44895;47.438;18.978;2022-12-29T07:25:22;23.65;;;13.82;;
59109;SDS011;44895;47.438;18.978;2022-12-29T07:28:26;21.40;;;15.02;;
59109;SDS011;44895;47.438;18.978;2022-12-29T07:31:30;23.52;;;14.93;;
59109;SDS011;44895;47.438;18.978;2022-12-29T07:34:34;23.50;;;15.07;;
59109;SDS011;44895;47.438;18.978;2022-12-29T07:37:37;22.40;;;14.65;;
59109;SDS011;44895;47.438;18.978;2022-12-29T07:40:42;22.05;;;15.23;;
59109;SDS011;44895;47.438;18.978;2022-12-29T07:43:46;22.80;;;14.93;;
59109;SDS011;44895;47.438;18.978;2022-12-29T07:47:07;21.33;;;15.40;;
59109;SDS011;44895;47.438;18.978;2022-12-29T07:50:11;23.90;;;16.88;;
59109;SDS011;44895;47.438;18.978;2022-12-29T07:53:14;26.95;;;16.08;;
59109;SDS011;44895;47.438;18.978;2022-12-29T07:56:18;24.42;;;15.15;;
59109;SDS011;44895;47.438;18.978;2022-12-29T07:59:22;21.23;;;14.27;;
59109;SDS011;44895;47.438;18.978;2022-12-29T08:02:26;22.10;;;15.63;;
59109;SDS011;44895;47.438;18.978;2022-12-29T08:05:30;23.30;;;15.18;;
59109;SDS011;44895;47.438;18.978;2022-12-29T08:08:35;29.70;;;16.75;;
59109;SDS011;44895;47.438;18.978;2022-12-29T08:11:38;26.63;;;16.63;;
59109;SDS011;44895;47.438;18.978;2022-12-29T08:14:43;23.00;;;16.30;;
59109;SDS011;44895;47.438;18.978;2022-12-29T08:17:47;32.10;;;18.38;;
59109;SDS011;44895;47.438;18.978;2022-12-29T08:20:51;24.42;;;17.13;;
59109;SDS011;44895;47.438;18.978;2022-12-29T08:23:55;24.80;;;17.20;;
59109;SDS011;44895;47.438;18.978;2022-12-29T08:26:59;24.85;;;19.15;;
59109;SDS011;44895;47.438;18.978;2022-12-29T08:30:03;22.70;;;15.85;;
59109;SDS011;44895;47.438;18.978;2022-12-29T08:33:07;26.95;;;18.02;;
59109;SDS011;44895;47.438;18.978;2022-12-29T08:36:10;29.17;;;18.73;;
59109;SDS011;44895;47.438;18.978;2022-12-29T08:39:15;25.10;;;18.02;;
59109;SDS011;44895;47.438;18.978;2022-12-29T08:42:19;24.77;;;17.40;;
59109;SDS011;44895;47.438;18.978;2022-12-29T08:45:23;25.50;;;18.02;;
59109;SDS011;44895;47.438;18.978;2022-12-29T08:48:26;25.98;;;17.23;;
59109;SDS011;44895;47.438;18.978;2022-12-29T08:51:30;26.30;;;16.05;;
59109;SDS011;44895;47.438;18.978;2022-12-29T08:54:34;21.80;;;17.05;;
59109;SDS011;44895;47.438;18.978;2022-12-29T08:57:39;29.00;;;16.35;;
59109;SDS011;44895;47.438;18.978;2022-12-29T09:00:51;25.40;;;15.73;;
59109;SDS011;44895;47.438;18.978;2022-12-29T09:03:58;30.75;;;17.75;;
59109;SDS011;44895;47.438;18.978;2022-12-29T09:07:02;28.95;;;21.50;;
59109;SDS011;44895;47.438;18.978;2022-12-29T09:10:06;25.38;;;16.10;;
59109;SDS011;44895;47.438;18.978;2022-12-29T09:13:11;25.63;;;15.68;;
59109;SDS011;44895;47.438;18.978;2022-12-29T09:16:16;27.45;;;16.55;;
59109;SDS011;44895;47.438;18.978;2022-12-29T09:19:20;25.65;;;17.80;;
59109;SDS011;44895;47.438;18.978;2022-12-29T09:22:24;26.20;;;18.08;;
59109;SDS011;44895;47.438;18.978;2022-12-29T09:25:28;29.90;;;19.73;;
59109;SDS011;44895;47.438;18.978;2022-12-29T09:28:32;24.60;;;16.60;;
59109;SDS011;44895;47.438;18.978;2022-12-29T09:31:36;27.90;;;18.70;;
59109;SDS011;44895;47.438;18.978;2022-12-29T09:34:40;31.80;;;19.27;;
59109;SDS011;44895;47.438;18.978;2022-12-29T09:37:44;23.02;;;18.08;;
59109;SDS011;44895;47.438;18.978;2022-12-29T09:40:52;29.85;;;18.88;;
59109;SDS011;44895;47.438;18.978;2022-12-29T09:47:38;31.30;;;18.27;;
59109;SDS011;44895;47.438;18.978;2022-12-29T09:50:44;27.27;;;18.63;;
59109;SDS011;44895;47.438;18.978;2022-12-29T09:54:17;24.02;;;16.42;;
59109;SDS011;44895;47.438;18.978;2022-12-29T09:57:24;28.35;;;20.45;;
59109;SDS011;44895;47.438;18.978;2022-12-29T10:00:43;28.02;;;19.45;;
59109;SDS011;44895;47.438;18.978;2022-12-29T10:03:52;31.60;;;20.63;;
59109;SDS011;44895;47.438;18.978;2022-12-29T10:10:25;28.52;;;18.95;;
59109;SDS011;44895;47.438;18.978;2022-12-29T10:13:52;34.60;;;20.73;;
59109;SDS011;44895;47.438;18.978;2022-12-29T10:23:49;31.92;;;19.45;;
59109;SDS011;44895;47.438;18.978;2022-12-29T10:26:55;30.92;;;20.10;;
59109;SDS011;44895;47.438;18.978;2022-12-29T10:30:02;29.20;;;21.70;;
59109;SDS011;44895;47.438;18.978;2022-12-29T10:33:07;29.83;;;18.83;;
59109;SDS011;44895;47.438;18.978;2022-12-29T10:39:51;27.85;;;18.52;;
59109;SDS011;44895;47.438;18.978;2022-12-29T10:42:57;26.98;;;17.85;;
59109;SDS011;44895;47.438;18.978;2022-12-29T10:46:03;29.48;;;19.27;;
59109;SDS011;44895;47.438;18.978;2022-12-29T10:49:16;27.85;;;19.60;;
59109;SDS011;44895;47.438;18.978;2022-12-29T10:52:21;27.13;;;19.33;;
59109;SDS011;44895;47.438;18.978;2022-12-29T10:55:27;29.85;;;18.65;;
59109;SDS011;44895;47.438;18.978;2022-12-29T10:58:36;27.58;;;19.30;;
59109;SDS011;44895;47.438;18.978;2022-12-29T11:01:46;29.70;;;20.92;;
59109;SDS011;44895;47.438;18.978;2022-12-29T11:05:05;30.25;;;21.10;;
59109;SDS011;44895;47.438;18.978;2022-12-29T11:08:32;28.70;;;19.38;;
59109;SDS011;44895;47.438;18.978;2022-12-29T11:11:39;26.10;;;18.15;;
59109;SDS011;44895;47.438;18.978;2022-12-29T11:14:43;31.88;;;22.40;;
59109;SDS011;44895;47.438;18.978;2022-12-29T11:17:54;29.23;;;21.30;;
59109;SDS011;44895;47.438;18.978;2022-12-29T11:21:03;29.13;;;22.65;;
59109;SDS011;44895;47.438;18.978;2022-12-29T11:27:26;33.13;;;20.45;;
59109;SDS011;44895;47.438;18.978;2022-12-29T11:30:31;32.40;;;20.95;;
59109;SDS011;44895;47.438;18.978;2022-12-29T11:33:36;32.47;;;20.40;;
59109;SDS011;44895;47.438;18.978;2022-12-29T11:36:41;36.70;;;21.55;;
59109;SDS011;44895;47.438;18.978;2022-12-29T11:39:55;32.55;;;21.60;;
59109;SDS011;44895;47.438;18.978;2022-12-29T11:43:01;29.67;;;21.10;;
59109;SDS011;44895;47.438;18.978;2022-12-29T11:46:07;29.27;;;21.27;;
59109;SDS011;44895;47.438;18.978;2022-12-29T11:49:20;32.45;;;21.52;;
59109;SDS011;44895;47.438;18.978;2022-12-29T11:52:29;34.50;;;23.67;;
59109;SDS011;44895;47.438;18.978;2022-12-29T11:55:38;30.30;;;23.00;;
59109;SDS011;44895;47.438;18.978;2022-12-29T11:58:41;38.45;;;23.05;;
59109;SDS011;44895;47.438;18.978;2022-12-29T12:01:46;37.20;;;23.83;;
59109;SDS011;44895;47.438;18.978;2022-12-29T12:04:53;37.28;;;24.70;;
59109;SDS011;44895;47.438;18.978;2022-12-29T12:08:07;35.25;;;21.25;;
59109;SDS011;44895;47.438;18.978;2022-12-29T12:11:14;32.10;;;24.58;;
59109;SDS011;44895;47.438;18.978;2022-12-29T12:21:08;35.78;;;23.20;;
59109;SDS011;44895;47.438;18.978;2022-12-29T12:27:39;30.80;;;23.90;;
59109;SDS011;44895;47.438;18.978;2022-12-29T12:30:53;33.70;;;24.40;;
59109;SDS011;44895;47.438;18.978;2022-12-29T12:34:01;31.83;;;22.75;;
59109;SDS011;44895;47.438;18.978;2022-12-29T12:44:25;30.48;;;23.45;;
59109;SDS011;44895;47.438;18.978;2022-12-29T12:47:44;33.33;;;22.58;;
59109;SDS011;44895;47.438;18.978;2022-12-29T12:51:05;59.33;;;29.02;;
59109;SDS011;44895;47.438;18.978;2022-12-29T13:01:47;35.63;;;24.45;;
59109;SDS011;44895;47.438;18.978;2022-12-29T13:25:07;34.92;;;24.98;;
59109;SDS011;44895;47.438;18.978;2022-12-29T13:28:47;32.42;;;22.42;;
59109;SDS011;44895;47.438;18.978;2022-12-29T13:32:16;42.10;;;23.52;;
59109;SDS011;44895;47.438;18.978;2022-12-29T13:38:56;34.90;;;23.83;;
59109;SDS011;44895;47.438;18.978;2022-12-29T13:42:22;36.92;;;23.70;;
59109;SDS011;44895;47.438;18.978;2022-12-29T13:45:29;36.20;;;22.63;;
59109;SDS011;44895;47.438;18.978;2022-12-29T13:59:17;32.75;;;24.08;;
59109;SDS011;44895;47.438;18.978;2022-12-29T14:12:44;37.55;;;24.98;;
59109;SDS011;44895;47.438;18.978;2022-12-29T14:15:54;33.17;;;24.67;;
59109;SDS011;44895;47.438;18.978;2022-12-29T14:19:04;32.95;;;23.88;;
59109;SDS011;44895;47.438;18.978;2022-12-29T14:22:15;36.10;;;23.58;;
59109;SDS011;44895;47.438;18.978;2022-12-29T14:35:40;34.63;;;24.27;;
59109;SDS011;44895;47.438;18.978;2022-12-29T14:38:46;31.45;;;21.50;;
59109;SDS011;44895;47.438;18.978;2022-12-29T14:48:30;31.25;;;22.60;;
59109;SDS011;44895;47.438;18.978;2022-12-29T14:51:38;35.13;;;24.17;;
59109;SDS011;44895;47.438;18.978;2022-12-29T14:54:44;33.65;;;22.48;;
59109;SDS011;44895;47.438;18.978;2022-12-29T14:57:56;31.65;;;20.48;;
59109;SDS011;44895;47.438;18.978;2022-12-29T15:01:03;31.45;;;21.10;;
59109;SDS011;44895;47.438;18.978;2022-12-29T15:04:23;33.90;;;23.90;;
59109;SDS011;44895;47.438;18.978;2022-12-29T15:07:33;36.25;;;25.77;;
59109;SDS011;44895;47.438;18.978;2022-12-29T15:14:23;38.53;;;25.75;;
59109;SDS011;44895;47.438;18.978;2022-12-29T15:17:35;39.22;;;24.63;;
59109;SDS011;44895;47.438;18.978;2022-12-29T15:20:42;41.45;;;24.02;;
59109;SDS011;44895;47.438;18.978;2022-12-29T15:23:46;32.40;;;23.63;;
59109;SDS011;44895;47.438;18.978;2022-12-29T15:26:50;40.88;;;25.52;;
59109;SDS011;44895;47.438;18.978;2022-12-29T15:29:58;36.40;;;25.52;;
59109;SDS011;44895;47.438;18.978;2022-12-29T15:33:18;38.65;;;24.08;;
59109;SDS011;44895;47.438;18.978;2022-12-29T15:36:25;36.35;;;25.85;;
59109;SDS011;44895;47.438;18.978;2022-12-29T15:39:31;40.85;;;24.45;;
59109;SDS011;44895;47.438;18.978;2022-12-29T15:45:51;38.88;;;26.08;;
59109;SDS011;44895;47.438;18.978;2022-12-29T15:48:57;36.42;;;24.00;;
59109;SDS011;44895;47.438;18.978;2022-12-29T15:52:05;36.38;;;24.27;;
59109;SDS011;44895;47.438;18.978;2022-12-29T15:55:21;40.63;;;26.98;;
59109;SDS011;44895;47.438;18.978;2022-12-29T15:58:41;37.83;;;25.55;;
59109;SDS011;44895;47.438;18.978;2022-12-29T16:01:47;35.88;;;24.40;;
59109;SDS011;44895;47.438;18.978;2022-12-29T16:04:51;37.30;;;27.27;;
59109;SDS011;44895;47.438;18.978;2022-12-29T16:07:56;38.80;;;26.67;;
59109;SDS011;44895;47.438;18.978;2022-12-29T16:11:02;37.20;;;24.20;;
59109;SDS011;44895;47.438;18.978;2022-12-29T16:14:31;34.72;;;23.98;;
59109;SDS011;44895;47.438;18.978;2022-12-29T16:20:57;39.63;;;23.60;;
59109;SDS011;44895;47.438;18.978;2022-12-29T16:24:02;39.67;;;26.52;;
59109;SDS011;44895;47.438;18.978;2022-12-29T16:27:21;38.63;;;27.38;;
59109;SDS011;44895;47.438;18.978;2022-12-29T16:30:32;38.03;;;25.83;;
59109;SDS011;44895;47.438;18.978;2022-12-29T16:36:56;38.28;;;26.73;;
59109;SDS011;44895;47.438;18.978;2022-12-29T16:43:27;39.78;;;26.40;;
59109;SDS011;44895;47.438;18.978;2022-12-29T16:46:34;39.85;;;24.52;;
59109;SDS011;44895;47.438;18.978;2022-12-29T16:49:39;39.53;;;25.35;;
59109;SDS011;44895;47.438;18.978;2022-12-29T16:52:51;42.20;;;27.23;;
59109;SDS011;44895;47.438;18.978;2022-12-29T16:55:55;49.92;;;29.80;;
59109;SDS011;44895;47.438;18.978;2022-12-29T16:59:07;38.17;;;27.85;;
59109;SDS011;44895;47.438;18.978;2022-12-29T17:02:23;39.95;;;25.70;;
59109;SDS011;44895;47.438;18.978;2022-12-29T17:05:28;39.90;;;28.85;;
59109;SDS011;44895;47.438;18.978;2022-12-29T17:08:39;40.28;;;26.42;;
59109;SDS011;44895;47.438;18.978;2022-12-29T17:11:45;38.83;;;27.67;;
59109;SDS011;44895;47.438;18.978;2022-12-29T17:15:04;38.92;;;27.25;;
59109;SDS011;44895;47.438;18.978;2022-12-29T17:18:13;41.67;;;28.25;;
59109;SDS011;44895;47.438;18.978;2022-12-29T17:21:16;37.72;;;28.48;;
59109;SDS011;44895;47.438;18.978;2022-12-29T17:24:20;40.55;;;26.63;;
59109;SDS011;44895;47.438;18.978;2022-12-29T17:27:29;36.53;;;26.85;;
59109;SDS011;44895;47.438;18.978;2022-12-29T17:30:39;37.67;;;29.10;;
59109;SDS011;44895;47.438;18.978;2022-12-29T17:33:43;41.33;;;29.60;;
59109;SDS011;44895;47.438;18.978;2022-12-29T17:36:46;41.13;;;27.05;;
59109;SDS011;44895;47.438;18.978;2022-12-29T17:39:50;35.55;;;24.88;;
59109;SDS011;44895;47.438;18.978;2022-12-29T17:42:55;40.40;;;26.15;;
59109;SDS011;44895;47.438;18.978;2022-12-29T17:45:59;40.58;;;28.33;;
59109;SDS011;44895;47.438;18.978;2022-12-29T17:49:04;42.85;;;26.33;;
59109;SDS011;44895;47.438;18.978;2022-12-29T17:52:12;42.22;;;27.13;;
59109;SDS011;44895;47.438;18.978;2022-12-29T17:55:19;41.95;;;27.30;;
59109;SDS011;44895;47.438;18.978;2022-12-29T17:58:28;42.58;;;26.10;;
59109;SDS011;44895;47.438;18.978;2022-12-29T18:01:33;39.58;;;26.38;;
59109;SDS011;44895;47.438;18.978;2022-12-29T18:04:37;41.70;;;25.42;;
59109;SDS011;44895;47.438;18.978;2022-12-29T18:07:40;39.45;;;26.10;;
59109;SDS011;44895;47.438;18.978;2022-12-29T18:10:44;45.92;;;26.90;;
59109;SDS011;44895;47.438;18.978;2022-12-29T18:13:48;40.05;;;27.50;;
59109;SDS011;44895;47.438;18.978;2022-12-29T18:16:52;39.08;;;24.85;;
59109;SDS011;44895;47.438;18.978;2022-12-29T18:19:56;34.97;;;24.90;;
59109;SDS011;44895;47.438;18.978;2022-12-29T18:23:00;40.20;;;26.73;;
59109;SDS011;44895;47.438;18.978;2022-12-29T18:26:11;36.63;;;25.80;;
59109;SDS011;44895;47.438;18.978;2022-12-29T18:29:24;36.70;;;25.17;;
59109;SDS011;44895;47.438;18.978;2022-12-29T18:32:28;39.78;;;29.38;;
59109;SDS011;44895;47.438;18.978;2022-12-29T18:35:39;36.88;;;25.70;;
59109;SDS011;44895;47.438;18.978;2022-12-29T18:38:47;38.75;;;27.40;;
59109;SDS011;44895;47.438;18.978;2022-12-29T18:41:52;38.50;;;27.55;;
59109;SDS011;44895;47.438;18.978;2022-12-29T18:44:56;42.92;;;27.05;;
59109;SDS011;44895;47.438;18.978;2022-12-29T18:47:59;39.97;;;27.05;;
59109;SDS011;44895;47.438;18.978;2022-12-29T18:51:04;45.33;;;25.10;;
59109;SDS011;44895;47.438;18.978;2022-12-29T18:54:21;35.08;;;24.05;;
59109;SDS011;44895;47.438;18.978;2022-12-29T18:57:34;38.25;;;24.08;;
59109;SDS011;44895;47.438;18.978;2022-12-29T19:00:37;38.90;;;25.48;;
59109;SDS011;44895;47.438;18.978;2022-12-29T19:03:42;38.33;;;26.13;;
59109;SDS011;44895;47.438;18.978;2022-12-29T19:06:45;40.63;;;26.88;;
59109;SDS011;44895;47.438;18.978;2022-12-29T19:09:49;38.67;;;23.80;;
59109;SDS011;44895;47.438;18.978;2022-12-29T19:12:53;33.65;;;23.95;;
59109;SDS011;44895;47.438;18.978;2022-12-29T19:15:57;41.22;;;27.05;;
59109;SDS011;44895;47.438;18.978;2022-12-29T19:19:01;42.88;;;26.85;;
59109;SDS011;44895;47.438;18.978;2022-12-29T19:22:06;37.00;;;23.77;;
59109;SDS011;44895;47.438;18.978;2022-12-29T19:25:11;39.03;;;24.77;;
59109;SDS011;44895;47.438;18.978;2022-12-29T19:28:19;40.75;;;23.73;;
59109;SDS011;44895;47.438;18.978;2022-12-29T19:31:27;39.38;;;24.17;;
59109;SDS011;44895;47.438;18.978;2022-12-29T19:34:31;38.47;;;25.35;;
59109;SDS011;44895;47.438;18.978;2022-12-29T19:37:35;38.70;;;26.85;;
59109;SDS011;44895;47.438;18.978;2022-12-29T19:40:46;38.78;;;24.00;;
59109;SDS011;44895;47.438;18.978;2022-12-29T19:43:52;38.88;;;23.50;;
59109;SDS011;44895;47.438;18.978;2022-12-29T19:46:56;33.13;;;22.60;;
59109;SDS011;44895;47.438;18.978;2022-12-29T19:50:00;38.63;;;25.45;;
59109;SDS011;44895;47.438;18.978;2022-12-29T19:53:04;33.83;;;23.08;;
59109;SDS011;44895;47.438;18.978;2022-12-29T19:56:08;33.85;;;22.35;;
59109;SDS011;44895;47.438;18.978;2022-12-29T19:59:12;32.83;;;21.85;;
59109;SDS011;44895;47.438;18.978;2022-12-29T20:02:26;37.30;;;23.70;;
59109;SDS011;44895;47.438;18.978;2022-12-29T20:05:32;32.50;;;21.00;;
59109;SDS011;44895;47.438;18.978;2022-12-29T20:08:36;34.58;;;23.63;;
59109;SDS011;44895;47.438;18.978;2022-12-29T20:11:41;32.95;;;24.75;;
59109;SDS011;44895;47.438;18.978;2022-12-29T20:14:45;35.55;;;22.88;;
59109;SDS011;44895;47.438;18.978;2022-12-29T20:17:49;37.58;;;24.58;;
59109;SDS011;44895;47.438;18.978;2022-12-29T20:20:53;35.55;;;26.67;;
59109;SDS011;44895;47.438;18.978;2022-12-29T20:23:56;34.45;;;23.30;;
59109;SDS011;44895;47.438;18.978;2022-12-29T20:27:00;35.63;;;25.98;;
59109;SDS011;44895;47.438;18.978;2022-12-29T20:30:05;33.40;;;22.83;;
59109;SDS011;44895;47.438;18.978;2022-12-29T20:33:10;41.28;;;24.65;;
59109;SDS011;44895;47.438;18.978;2022-12-29T20:36:16;37.13;;;24.67;;
59109;SDS011;44895;47.438;18.978;2022-12-29T20:39:25;34.15;;;22.88;;